Salina, KS

5:21 PM CDT on August 27, 2016 (GMT -0500)
Stegall's Oasis | | Change Station

Elev 1247 ft 38.82 °N, 97.63 °W | Updated 11 minutes ago

Clear
Clear
91.0 °F
Feels Like 99 °F
N
1.1
Wind Variable Wind from ESE

Today
High -- | Low -- °F
--% Chance of Precip.
Yesterday
High -- | Low -- °F
Precip. -- in
Pressure 29.94 in
Visibility 10.0 miles
Clouds Clear
Heat Index 99 °F
Dew Point 72 °F
Humidity 54%
Rainfall 0.56 in
Snow Depth Not available.
6:55 AM 8:07 PM
Waning Crescent, 21% visible
METAR KSLN 272153Z AUTO 12005KT 10SM CLR 30/20 A2997 RMK AO2 SLP136 T03000200
Pressure 29.94 in
Visibility 10.0 miles
Clouds Clear
Heat Index 99 °F
Dew Point 72 °F
Humidity 54%
Rainfall 0.56 in
Snow Depth Not available.
6:55 AM 8:07 PM
Waning Crescent, 21% visible
METAR KSLN 272153Z AUTO 12005KT 10SM CLR 30/20 A2997 RMK AO2 SLP136 T03000200

10-Day Weather Forecast

Almanac

Astronomy

Aug. 27, 2016 Rise Set
Actual Time
Civil Twilight
Nautical Twilight
Astronomical Twilight
Moon
Length of Visible Light
Length of Day
Tomorrow will be .
, % of the Moon is Illuminated

Today's Extremes

State Highs State Lows

Community

WunderPhotos

Upload Photos

1,935,455 photos uploaded!

WunderBlog® & News

Nearby

Air Quality

  Air Quality AQ Index Pollutant
Not available.

Snow Depth

Station Depth Elevation

Earthquake Activity

City Distance Mag. Time & Date
Minimum magnitude displayed is 2.5.

Coastal Water Temperatures

Place Temperature

Stations

Nearby Weather Stations

Station Location Temp. Windchill Dew Point Humidity Wind Precip. Elev Updated Type
                   

Watches & Warnings

There are currently no watches in effect.